Time;durP1;ratioP1;P1;durP2;ratioP2;P2;SDS_P1;SDS_P2;PMS_P1;PMS_P2;Temp;Humidity;BMP_temperature;BMP_pressure;BME280_temperature;BME280_humidity;BME280_pressure;Samples;Min_cycle;Max_cycle;Signal;HPM_P1;HPM_P2
2023/06/28 00:00:01;;;;;;;10.23;3.20;;;;;;;12.98;100.00;93285.97;2010162;29;20033;-83
2023/06/28 00:01:09;;;;;;;4.97;3.35;;;;;;;13.00;100.00;93294.38;2018669;29;20112;-85
2023/06/28 00:02:16;;;;;;;6.50;3.20;;;;;;;13.04;100.00;93291.59;2015074;29;20036;-83
2023/06/28 00:03:23;;;;;;;5.53;3.40;;;;;;;12.97;100.00;93292.53;2019327;29;20037;-81
2023/06/28 00:04:27;;;;;;;8.75;3.30;;;;;;;12.95;100.00;93302.19;2010806;29;20135;-82
2023/06/28 00:05:35;;;;;;;6.15;3.15;;;;;;;12.94;100.00;93293.38;1996500;29;20576;-82
2023/06/28 00:06:44;;;;;;;6.22;3.40;;;;;;;12.87;100.00;93298.22;2012046;29;20053;-83
2023/06/28 00:07:51;;;;;;;8.25;3.50;;;;;;;12.87;100.00;93298.22;2010897;29;20025;-81
2023/06/28 00:08:54;;;;;;;4.70;2.80;;;;;;;12.85;100.00;93298.63;2003989;29;20499;-82
2023/06/28 00:10:03;;;;;;;7.40;3.50;;;;;;;12.80;100.00;93299.88;1995258;29;20092;-84
2023/06/28 00:11:11;;;;;;;4.88;3.00;;;;;;;12.71;100.00;93299.75;1997392;29;20030;-82
2023/06/28 00:12:21;;;;;;;6.57;3.22;;;;;;;12.74;100.00;93301.59;2017916;29;20306;-83
2023/06/28 00:13:27;;;;;;;8.20;3.15;;;;;;;12.73;100.00;93293.97;2025009;29;20036;-83
2023/06/28 00:14:56;;;;;;;5.97;3.00;;;;;;;12.72;100.00;93298.56;2002688;29;20032;-80
2023/06/28 00:16:10;;;;;;;8.77;3.45;;;;;;;12.68;100.00;93300.59;2007673;29;20035;-83
2023/06/28 00:17:17;;;;;;;7.97;3.53;;;;;;;12.58;100.00;93301.63;2016106;29;20025;-81
2023/06/28 00:18:29;;;;;;;5.63;3.50;;;;;;;12.58;100.00;93296.28;2010412;29;20060;-81
2023/06/28 00:19:47;;;;;;;5.78;3.13;;;;;;;12.43;100.00;93306.63;2003981;29;20030;-83
2023/06/28 00:21:00;;;;;;;5.68;3.00;;;;;;;12.47;100.00;93301.19;2014718;29;20060;-83
2023/06/28 00:22:07;;;;;;;6.55;2.97;;;;;;;12.42;100.00;93299.75;2018179;29;20116;-81
2023/06/28 00:23:17;;;;;;;5.63;3.40;;;;;;;12.44;100.00;93307.38;2004763;29;20037;-84
2023/06/28 00:24:27;;;;;;;5.47;3.17;;;;;;;12.33;100.00;93297.66;2010005;29;20072;-85
2023/06/28 00:25:34;;;;;;;7.25;3.85;;;;;;;12.24;100.00;93304.81;2004369;29;20044;-84
2023/06/28 00:26:42;;;;;;;5.38;3.00;;;;;;;12.27;100.00;93293.25;2010813;29;20169;-83
2023/06/28 00:27:48;;;;;;;6.03;3.15;;;;;;;12.19;100.00;93298.03;2011924;29;20036;-84
2023/06/28 00:28:55;;;;;;;5.32;3.13;;;;;;;12.24;100.00;93300.19;2010747;29;20056;-83
2023/06/28 00:30:04;;;;;;;6.55;3.03;;;;;;;12.24;100.00;93291.41;2005283;29;20495;-80
2023/06/28 00:31:12;;;;;;;7.40;3.20;;;;;;;12.12;100.00;93297.47;2002453;29;20034;-84
2023/06/28 00:32:20;;;;;;;9.98;3.72;;;;;;;12.17;100.00;93294.28;2005018;29;20495;-82
2023/06/28 00:33:29;;;;;;;6.05;2.85;;;;;;;12.15;100.00;93299.28;2010131;29;20248;-84
2023/06/28 00:34:38;;;;;;;6.93;3.03;;;;;;;12.20;100.00;93291.50;2011546;29;20508;-81
2023/06/28 00:35:50;;;;;;;6.80;2.80;;;;;;;12.13;100.00;93296.28;2008329;29;20025;-83
2023/06/28 00:36:56;;;;;;;3.92;3.15;;;;;;;12.01;100.00;93293.13;2015605;29;20815;-83
2023/06/28 00:38:06;;;;;;;10.52;3.60;;;;;;;12.01;100.00;93295.03;2003975;29;20029;-83
2023/06/28 00:39:13;;;;;;;6.05;3.10;;;;;;;12.00;100.00;93298.91;2012929;29;20124;-83
2023/06/28 00:40:23;;;;;;;5.40;3.25;;;;;;;11.92;100.00;93289.53;2010091;29;20435;-84
2023/06/28 00:41:32;;;;;;;7.10;3.20;;;;;;;11.87;100.00;93293.47;2012035;29;20037;-83
2023/06/28 00:42:41;;;;;;;6.95;3.10;;;;;;;11.88;100.00;93294.97;2010199;29;20033;-83
2023/06/28 00:43:50;;;;;;;7.03;3.17;;;;;;;11.96;100.00;93290.94;2004338;29;20026;-82
2023/06/28 00:44:59;;;;;;;8.55;3.42;;;;;;;11.88;100.00;93294.97;2001697;29;20522;-81
2023/06/28 00:46:07;;;;;;;10.90;3.87;;;;;;;11.74;100.00;93295.28;2003155;29;20038;-81
2023/06/28 00:47:16;;;;;;;4.93;3.00;;;;;;;11.82;100.00;93300.06;2014279;29;20425;-81
2023/06/28 00:48:23;;;;;;;5.10;3.15;;;;;;;11.89;100.00;93287.69;2010706;29;20414;-82
2023/06/28 00:49:35;;;;;;;6.75;3.22;;;;;;;11.79;100.00;93290.16;2016333;29;20501;-82
2023/06/28 00:50:41;;;;;;;8.13;3.35;;;;;;;11.78;100.00;93287.91;2018339;29;20111;-81
2023/06/28 00:51:49;;;;;;;4.38;2.72;;;;;;;11.70;100.00;93292.69;2018358;29;20029;-82
2023/06/28 00:52:56;;;;;;;9.70;3.15;;;;;;;11.74;100.00;93290.66;2011984;29;20495;-81
2023/06/28 00:54:03;;;;;;;8.15;3.13;;;;;;;11.66;100.00;93285.91;2011576;29;20033;-83
2023/06/28 00:55:10;;;;;;;6.45;3.42;;;;;;;11.66;100.00;93293.94;2011166;29;20127;-82
2023/06/28 00:56:20;;;;;;;7.30;3.28;;;;;;;11.69;100.00;93287.75;2004992;29;20067;-84
2023/06/28 00:57:28;;;;;;;6.00;2.88;;;;;;;11.60;100.00;93288.31;2018368;29;20031;-81
2023/06/28 00:58:39;;;;;;;5.40;3.53;;;;;;;11.60;100.00;93289.06;2022973;29;20108;-81
2023/06/28 00:59:45;;;;;;;;;;;;;;;11.56;100.00;93293.00;2022403;29;20039;-81
2023/06/28 01:00:56;;;;;;;5.55;2.90;;;;;;;11.50;100.00;93290.09;2008453;29;19957;-84
2023/06/28 01:02:06;;;;;;;7.47;3.45;;;;;;;11.50;100.00;93283.94;2004609;29;20030;-81
2023/06/28 01:03:10;;;;;;;;;;;;;;;11.54;100.00;93292.66;2013860;29;20038;-81
2023/06/28 01:04:15;;;;;;;6.63;3.22;;;;;;;11.46;100.00;93284.06;2018798;29;20311;-83
2023/06/28 01:05:23;;;;;;;5.25;3.35;;;;;;;11.51;100.00;93283.56;2017029;29;20025;-80
2023/06/28 01:06:35;;;;;;;6.60;3.20;;;;;;;11.50;100.00;93281.28;2002934;29;20022;-81
2023/06/28 01:07:43;;;;;;;8.63;3.17;;;;;;;11.47;100.00;93292.84;2005954;29;20038;-82
2023/06/28 01:08:52;;;;;;;12.35;2.92;;;;;;;11.37;100.00;93289.22;2020008;29;20840;-82
2023/06/28 01:10:17;;;;;;;7.00;2.90;;;;;;;11.34;100.00;93292.72;2017799;29;20116;-81
2023/06/28 01:11:26;;;;;;;7.53;3.47;;;;;;;11.42;100.00;93285.31;2020657;29;20089;-83
2023/06/28 01:12:34;;;;;;;8.77;3.58;;;;;;;11.45;100.00;93290.56;2016795;29;20024;-84
2023/06/28 01:13:43;;;;;;;6.45;3.42;;;;;;;11.31;100.00;93288.94;2013851;29;20029;-80
2023/06/28 01:14:53;;;;;;;5.93;3.38;;;;;;;11.30;100.00;93292.78;2015143;29;20116;-83
2023/06/28 01:15:57;;;;;;;7.47;3.35;;;;;;;11.30;100.00;93292.78;2016249;29;20149;-83
2023/06/28 01:16:59;;;;;;;3.95;2.78;;;;;;;11.35;100.00;93291.56;2017020;29;20446;-81
2023/06/28 01:18:06;;;;;;;8.75;2.97;;;;;;;11.32;100.00;93298.47;2002916;29;20083;-82
2023/06/28 01:19:17;;;;;;;5.35;3.03;;;;;;;11.32;100.00;93295.06;2011196;29;20113;-82
2023/06/28 01:20:20;;;;;;;6.57;3.53;;;;;;;11.42;100.00;93301.34;2011644;29;20052;-80
2023/06/28 01:21:35;;;;;;;7.85;3.40;;;;;;;11.35;100.00;93304.94;2003014;29;20033;-81
2023/06/28 01:22:43;;;;;;;6.22;3.45;;;;;;;11.30;100.00;93297.41;2004424;29;20034;-84
2023/06/28 01:23:49;;;;;;;8.23;3.58;;;;;;;11.35;100.00;93303.00;2010441;29;20048;-83
2023/06/28 01:24:57;;;;;;;8.25;3.10;;;;;;;11.40;100.00;93299.09;2003275;29;20757;-82
2023/06/28 01:26:06;;;;;;;5.22;3.17;;;;;;;11.48;100.00;93297.75;2003191;29;20030;-83
2023/06/28 01:27:15;;;;;;;6.05;2.65;;;;;;;11.49;100.00;93309.22;2005846;29;20021;-81
2023/06/28 01:28:24;;;;;;;5.57;3.22;;;;;;;11.50;100.00;93303.47;2009713;29;20038;-83
2023/06/28 01:29:36;;;;;;;4.25;2.95;;;;;;;11.51;100.00;93302.28;2012093;29;20438;-81
2023/06/28 01:30:40;;;;;;;6.50;3.60;;;;;;;11.56;100.00;93295.69;2021702;29;20020;-82
2023/06/28 01:31:49;;;;;;;6.88;2.95;;;;;;;11.55;100.00;93294.94;2026063;29;20064;-84
2023/06/28 01:32:52;;;;;;;6.85;3.33;;;;;;;11.47;100.00;93298.94;2003101;29;20056;-82
2023/06/28 01:34:01;;;;;;;5.63;3.00;;;;;;;11.54;100.00;93298.75;2006616;29;20040;-84
2023/06/28 01:35:05;;;;;;;4.97;2.97;;;;;;;11.59;100.00;93292.19;2023342;29;20071;-82
2023/06/28 01:36:10;;;;;;;10.25;3.35;;;;;;;11.56;100.00;93290.31;2019861;29;20743;-82
2023/06/28 01:37:17;;;;;;;9.38;3.33;;;;;;;11.50;100.00;93297.34;2013030;29;20080;-81
2023/06/28 01:38:29;;;;;;;7.22;3.25;;;;;;;11.63;100.00;93302.78;2018722;29;20091;-84
2023/06/28 01:39:34;;;;;;;6.00;3.50;;;;;;;11.62;100.00;93298.59;2010968;29;20026;-84
2023/06/28 01:40:44;;;;;;;9.52;3.33;;;;;;;11.55;100.00;93300.28;2021379;29;20028;-83
2023/06/28 01:41:54;;;;;;;7.72;3.33;;;;;;;11.51;100.00;93301.53;2017909;29;20029;-83
2023/06/28 01:43:06;;;;;;;11.35;3.55;;;;;;;11.58;100.00;93296.75;2017632;29;20116;-84
2023/06/28 01:44:11;;;;;;;7.13;3.22;;;;;;;11.61;100.00;93300.53;2011079;29;20033;-81
2023/06/28 01:45:20;;;;;;;9.90;3.30;;;;;;;11.63;100.00;93294.75;2018073;29;20029;-82
2023/06/28 01:46:30;;;;;;;6.55;3.33;;;;;;;11.55;100.00;93296.84;2009817;29;20112;-83
2023/06/28 01:47:37;;;;;;;8.02;3.47;;;;;;;11.62;100.00;93294.00;2004082;29;20034;-84
2023/06/28 01:48:41;;;;;;;10.23;3.72;;;;;;;11.64;100.00;93291.69;2002158;29;20525;-84
2023/06/28 01:49:46;;;;;;;7.28;3.22;;;;;;;11.70;100.00;93295.34;2008064;29;20132;-83
2023/06/28 01:50:55;;;;;;;5.50;3.15;;;;;;;11.74;100.00;93296.03;2008235;29;20077;-83
2023/06/28 01:51:58;;;;;;;8.13;2.88;;;;;;;11.79;100.00;93298.19;2010730;29;20495;-82
2023/06/28 01:53:03;;;;;;;6.15;3.75;;;;;;;11.78;100.00;93291.34;2017421;29;20029;-81
2023/06/28 01:54:04;;;;;;;6.10;3.13;;;;;;;11.89;100.00;93290.34;2020605;29;20103;-82
2023/06/28 01:55:05;;;;;;;7.70;3.40;;;;;;;11.81;100.00;93292.44;2016725;29;20116;-83
2023/06/28 01:56:06;;;;;;;6.15;3.10;;;;;;;11.78;100.00;93301.31;2002606;29;20037;-83
2023/06/28 01:57:07;;;;;;;10.63;3.30;;;;;;;11.83;100.00;93292.78;2003589;29;20103;-83
2023/06/28 01:58:09;;;;;;;6.53;3.30;;;;;;;11.86;100.00;93294.63;2017737;29;20024;-84
2023/06/28 01:59:10;;;;;;;6.10;2.97;;;;;;;11.79;100.00;93295.53;2009903;29;20082;-82
2023/06/28 02:00:11;;;;;;;5.88;3.35;;;;;;;11.80;100.00;93285.56;2016828;29;20490;-83
2023/06/28 02:01:13;;;;;;;12.15;3.38;;;;;;;11.88;100.00;93286.94;2009347;29;20033;-84
2023/06/28 02:02:14;;;;;;;8.98;3.60;;;;;;;11.91;100.00;93280.75;2009423;29;20036;-84
2023/06/28 02:03:15;;;;;;;7.85;3.10;;;;;;;11.98;100.00;93287.84;2009376;29;20078;-83
2023/06/28 02:04:16;;;;;;;6.35;3.20;;;;;;;12.01;100.00;93279.72;2003726;29;20102;-83
2023/06/28 02:05:17;;;;;;;9.93;3.92;;;;;;;11.97;100.00;93283.66;2016794;29;20028;-84
2023/06/28 02:06:18;;;;;;;7.13;3.22;;;;;;;11.93;100.00;93283.00;2016993;29;20064;-82
2023/06/28 02:07:19;;;;;;;9.77;3.60;;;;;;;11.94;100.00;93279.13;2016964;29;20033;-83
2023/06/28 02:08:21;;;;;;;9.88;2.75;;;;;;;12.02;100.00;93281.22;2016881;29;20040;-84
2023/06/28 02:09:22;;;;;;;10.00;3.25;;;;;;;12.01;100.00;93282.41;2000592;29;20041;-82
2023/06/28 02:10:23;;;;;;;6.85;3.40;;;;;;;12.02;100.00;93278.53;2008837;29;20498;-84
2023/06/28 02:11:25;;;;;;;7.35;3.50;;;;;;;12.05;100.00;93279.63;2007661;29;20033;-83
2023/06/28 02:12:26;;;;;;;9.18;3.83;;;;;;;12.02;100.00;93278.53;2008359;29;20030;-82
2023/06/28 02:13:28;;;;;;;6.57;3.22;;;;;;;11.93;100.00;93267.66;2001599;29;20042;-82
2023/06/28 02:14:29;;;;;;;6.28;3.17;;;;;;;12.06;100.00;93275.78;2000595;29;20026;-82
2023/06/28 02:15:30;;;;;;;6.53;3.42;;;;;;;12.08;100.00;93284.16;1996635;29;20030;-82
2023/06/28 02:16:31;;;;;;;8.20;3.60;;;;;;;12.03;100.00;93279.31;2000822;29;20033;-84
2023/06/28 02:17:32;;;;;;;9.68;3.20;;;;;;;12.03;100.00;93290.78;2007454;29;20037;-82
2023/06/28 02:18:34;;;;;;;4.55;3.20;;;;;;;12.07;100.00;93288.78;2015627;29;20470;-82
2023/06/28 02:19:36;;;;;;;7.05;3.25;;;;;;;12.10;100.00;93290.59;2016887;29;20067;-84
2023/06/28 02:20:52;;;;;;;10.27;4.65;;;;;;;11.98;100.00;93277.88;2013014;29;20029;-82
2023/06/28 02:21:55;;;;;;;6.70;3.05;;;;;;;12.05;100.00;93274.28;2016969;29;20056;-84
2023/06/28 02:22:57;;;;;;;11.27;3.78;;;;;;;12.07;100.00;93269.25;2009363;29;20036;-82
2023/06/28 02:23:58;;;;;;;10.98;3.47;;;;;;;12.14;100.00;93273.69;2005496;29;20078;-83
2023/06/28 02:25:02;;;;;;;6.88;3.60;;;;;;;12.18;100.00;93269.72;2004602;29;20033;-82
2023/06/28 02:26:03;;;;;;;6.75;3.00;;;;;;;12.28;100.00;93278.66;2017629;29;20029;-82
2023/06/28 02:27:05;;;;;;;8.73;3.00;;;;;;;12.29;100.00;93272.13;2011410;29;20032;-81
2023/06/28 02:28:06;;;;;;;6.32;3.60;;;;;;;12.23;100.00;93276.50;2017599;29;20117;-82
2023/06/28 02:29:07;;;;;;;8.43;3.58;;;;;;;12.27;100.00;93280.59;2016395;29;20399;-83
2023/06/28 02:30:08;;;;;;;6.35;3.30;;;;;;;12.24;100.00;93272.66;2005043;29;20030;-82
2023/06/28 02:31:10;;;;;;;4.35;2.97;;;;;;;12.27;100.00;93272.56;2016576;29;20044;-82
2023/06/28 02:32:11;;;;;;;5.70;2.97;;;;;;;12.31;100.00;93272.47;2008628;29;20124;-83
2023/06/28 02:33:12;;;;;;;9.25;3.17;;;;;;;12.26;100.00;93278.34;2016790;29;20033;-82
2023/06/28 02:34:14;;;;;;;5.43;3.20;;;;;;;12.28;100.00;93271.38;2016665;29;20029;-84
2023/06/28 02:35:15;;;;;;;9.10;3.33;;;;;;;12.33;100.00;93267.44;2006005;29;20030;-81
2023/06/28 02:36:17;;;;;;;16.00;3.80;;;;;;;12.27;100.00;93263.78;2008555;29;20097;-83
2023/06/28 02:37:18;;;;;;;6.18;3.42;;;;;;;12.25;100.00;93269.56;2008995;29;20073;-82
2023/06/28 02:38:19;;;;;;;5.80;3.03;;;;;;;12.29;100.00;93261.41;2009198;29;20025;-83
2023/06/28 02:39:20;;;;;;;11.52;3.53;;;;;;;12.30;100.00;93265.63;2003046;29;20162;-81
2023/06/28 02:40:24;;;;;;;7.63;3.30;;;;;;;12.26;100.00;93273.75;2014434;29;20020;-81
2023/06/28 02:41:25;;;;;;;5.28;3.50;;;;;;;12.23;100.00;93263.84;2017099;29;20037;-82
2023/06/28 02:42:28;;;;;;;6.07;3.22;;;;;;;12.25;100.00;93268.81;2021034;29;20081;-84
2023/06/28 02:43:30;;;;;;;6.47;3.20;;;;;;;12.28;100.00;93274.06;2012507;29;20391;-83
2023/06/28 02:44:35;;;;;;;8.82;3.70;;;;;;;12.22;100.00;93261.59;2011073;29;20116;-82
2023/06/28 02:45:38;;;;;;;6.15;3.10;;;;;;;12.28;100.00;93273.31;2016979;29;20112;-84
2023/06/28 02:46:39;;;;;;;8.02;3.25;;;;;;;12.25;100.00;93271.50;2015831;29;20036;-84
2023/06/28 02:47:40;;;;;;;6.10;3.60;;;;;;;12.28;100.00;93265.28;2012285;29;20025;-83
2023/06/28 02:48:42;;;;;;;8.27;3.80;;;;;;;12.22;100.00;93267.72;2002044;29;20022;-84
2023/06/28 02:49:43;;;;;;;7.05;3.80;;;;;;;12.23;100.00;93268.47;2008520;29;20017;-84
2023/06/28 02:50:47;;;;;;;5.93;3.70;;;;;;;12.29;100.00;93258.72;2024284;29;20028;-82
2023/06/28 02:51:51;;;;;;;5.47;3.35;;;;;;;12.27;100.00;93259.16;2010013;29;20025;-81
2023/06/28 02:52:52;;;;;;;5.28;3.40;;;;;;;12.35;100.00;93267.78;2002667;29;20030;-81
2023/06/28 02:53:53;;;;;;;7.85;3.80;;;;;;;12.26;100.00;93265.69;2016861;29;20033;-83
2023/06/28 02:54:54;;;;;;;7.13;3.30;;;;;;;12.26;100.00;93262.28;2012872;29;20041;-82
2023/06/28 02:55:55;;;;;;;9.43;3.78;;;;;;;12.26;100.00;93262.28;2001439;29;20046;-84
2023/06/28 02:56:56;;;;;;;9.27;3.60;;;;;;;12.31;100.00;93262.50;2009040;29;20026;-83
2023/06/28 02:57:57;;;;;;;10.27;3.63;;;;;;;12.38;100.00;93260.81;2009360;29;20033;-81
2023/06/28 02:58:58;;;;;;;6.10;3.83;;;;;;;12.34;100.00;93255.56;2016760;29;20032;-83
2023/06/28 02:59:59;;;;;;;5.05;3.20;;;;;;;12.38;100.00;93264.25;2016810;29;20028;-81
2023/06/28 03:01:00;;;;;;;10.20;4.18;;;;;;;12.37;100.00;93256.63;2016508;29;20490;-82
2023/06/28 03:02:04;;;;;;;10.65;3.35;;;;;;;12.34;100.00;93252.88;2021212;29;20056;-82
2023/06/28 03:03:09;;;;;;;9.50;3.40;;;;;;;12.45;100.00;93257.94;2001978;29;20074;-83
2023/06/28 03:04:12;;;;;;;12.32;4.20;;;;;;;12.42;100.00;93256.84;2009456;29;20025;-83
2023/06/28 03:05:13;;;;;;;7.97;3.33;;;;;;;12.41;100.00;93259.97;2008971;29;20070;-84
2023/06/28 03:06:15;;;;;;;5.90;3.58;;;;;;;12.44;100.00;93259.88;2008964;29;20355;-82
2023/06/28 03:07:17;;;;;;;5.70;3.60;;;;;;;12.36;100.00;93258.56;2008896;29;20029;-81
2023/06/28 03:08:18;;;;;;;6.78;3.35;;;;;;;12.39;100.00;93259.66;2016790;29;20044;-83
2023/06/28 03:09:20;;;;;;;6.68;3.45;;;;;;;12.40;100.00;93259.22;2010035;29;20442;-83
2023/06/28 03:10:21;;;;;;;7.72;3.83;;;;;;;12.33;100.00;93260.13;2005333;29;20058;-82
2023/06/28 03:11:23;;;;;;;8.40;3.50;;;;;;;12.40;100.00;93261.16;2018553;29;20048;-81
2023/06/28 03:12:24;;;;;;;6.45;3.53;;;;;;;12.41;100.00;93255.34;2001558;29;20045;-81
2023/06/28 03:13:27;;;;;;;7.80;3.65;;;;;;;12.39;100.00;93254.28;2015315;29;20124;-82
2023/06/28 03:14:28;;;;;;;8.57;3.30;;;;;;;12.39;100.00;93251.59;2013158;29;20108;-82
2023/06/28 03:15:29;;;;;;;9.60;4.10;;;;;;;12.46;100.00;93243.34;2002030;29;20120;-85
2023/06/28 03:16:31;;;;;;;8.32;3.50;;;;;;;12.40;100.00;93247.75;2009998;29;20491;-82
2023/06/28 03:17:32;;;;;;;5.80;3.60;;;;;;;12.35;100.00;93251.69;2012824;29;20025;-82
2023/06/28 03:18:33;;;;;;;8.48;3.50;;;;;;;12.44;100.00;93251.09;2017119;29;20029;-82
2023/06/28 03:19:38;;;;;;;8.77;3.83;;;;;;;12.45;100.00;93244.53;2011691;29;20037;-83
2023/06/28 03:20:40;;;;;;;10.05;4.13;;;;;;;12.45;100.00;93247.97;2009854;29;20025;-84
2023/06/28 03:21:48;;;;;;;12.90;4.05;;;;;;;12.40;100.00;93247.75;2006158;29;20040;-84
2023/06/28 03:22:54;;;;;;;10.63;3.63;;;;;;;12.44;100.00;93240.34;2011199;29;20026;-86
2023/06/28 03:24:04;;;;;;;8.75;3.90;;;;;;;12.43;100.00;93246.91;2012739;29;20052;-83
2023/06/28 03:25:09;;;;;;;9.65;3.85;;;;;;;12.40;100.00;93242.38;2012174;29;20029;-84
2023/06/28 03:26:18;;;;;;;8.25;3.60;;;;;;;12.29;100.00;93240.75;2019346;29;20039;-82
2023/06/28 03:27:24;;;;;;;5.80;3.70;;;;;;;12.38;100.00;93242.03;2025672;29;20052;-82
2023/06/28 03:28:33;;;;;;;7.75;3.58;;;;;;;12.41;100.00;93244.63;2019202;29;20029;-82
2023/06/28 03:29:41;;;;;;;9.48;4.40;;;;;;;12.25;100.00;93239.34;2000860;29;20040;-81
2023/06/28 03:30:49;;;;;;;7.80;3.55;;;;;;;12.36;100.00;93245.16;2004733;29;20034;-82
2023/06/28 03:31:58;;;;;;;7.55;4.03;;;;;;;12.41;100.00;93239.25;2005108;29;20041;-81
2023/06/28 03:33:04;;;;;;;10.77;4.28;;;;;;;12.39;100.00;93240.88;2012614;29;20029;-83
2023/06/28 03:34:14;;;;;;;8.10;3.83;;;;;;;12.40;100.00;93242.38;2012300;29;20025;-83
2023/06/28 03:35:21;;;;;;;;;;;;;;;12.48;100.00;93241.78;2012356;29;20074;-84
2023/06/28 03:36:31;;;;;;;8.00;4.13;;;;;;;12.52;100.00;93241.69;2012230;29;20425;-82
2023/06/28 03:37:40;;;;;;;7.38;4.05;;;;;;;12.51;100.00;93240.94;2025013;29;20036;-87
2023/06/28 03:38:47;;;;;;;18.42;5.00;;;;;;;12.50;100.00;93244.00;2011754;29;20072;-82
2023/06/28 03:39:52;;;;;;;7.72;4.25;;;;;;;12.44;100.00;93246.47;2012994;29;20036;-84
2023/06/28 03:40:59;;;;;;;7.88;4.40;;;;;;;12.46;100.00;93241.41;2012110;29;20108;-81
2023/06/28 03:42:05;;;;;;;8.18;3.83;;;;;;;12.47;100.00;93242.94;2012383;29;20026;-84
2023/06/28 03:43:09;;;;;;;10.43;4.03;;;;;;;12.48;100.00;93244.44;2002960;29;20034;-81
2023/06/28 03:44:15;;;;;;;7.18;3.95;;;;;;;12.43;100.00;93246.91;2009329;29;20056;-81
2023/06/28 03:45:21;;;;;;;9.65;3.90;;;;;;;12.39;100.00;93236.28;2014452;29;20513;-84
2023/06/28 03:46:29;;;;;;;8.45;3.90;;;;;;;12.39;100.00;93230.91;2013904;29;20068;-81
2023/06/28 03:47:34;;;;;;;8.25;3.50;;;;;;;12.40;100.00;93240.44;2012265;29;20037;-84
2023/06/28 03:48:40;;;;;;;10.05;3.88;;;;;;;12.41;100.00;93238.53;2011975;29;20025;-83
2023/06/28 03:49:49;;;;;;;10.15;4.20;;;;;;;12.43;100.00;93244.97;2011496;29;20041;-84
2023/06/28 03:50:55;;;;;;;11.40;4.15;;;;;;;12.47;100.00;93236.84;2009449;29;20173;-84
2023/06/28 03:52:00;;;;;;;7.65;3.72;;;;;;;12.54;100.00;93242.00;2010865;29;20128;-83
2023/06/28 03:53:06;;;;;;;8.15;4.50;;;;;;;12.48;100.00;93246.38;1997403;29;20376;-83
2023/06/28 03:54:13;;;;;;;7.65;3.55;;;;;;;12.52;100.00;93247.03;2007374;29;20121;-83
2023/06/28 03:55:20;;;;;;;8.98;4.20;;;;;;;12.53;100.00;93251.22;2005445;29;20034;-83
2023/06/28 03:56:25;;;;;;;7.40;3.90;;;;;;;12.55;100.00;93249.59;2004076;29;20030;-81
2023/06/28 03:57:29;;;;;;;6.13;3.95;;;;;;;12.54;100.00;93247.34;2011705;29;20247;-82
2023/06/28 03:58:37;;;;;;;14.15;4.20;;;;;;;12.54;100.00;93247.34;2019467;29;20025;-82
2023/06/28 03:59:42;;;;;;;6.65;4.20;;;;;;;12.59;100.00;93241.47;2023232;29;20036;-82
2023/06/28 04:00:47;;;;;;;6.63;3.63;;;;;;;12.50;100.00;93246.69;2017024;29;20040;-82
2023/06/28 04:01:51;;;;;;;11.25;4.00;;;;;;;12.50;100.00;93250.13;2004869;29;20091;-84
2023/06/28 04:02:53;;;;;;;12.20;4.28;;;;;;;12.54;100.00;93244.66;1997274;29;20647;-84
2023/06/28 04:03:59;;;;;;;6.32;4.00;;;;;;;12.52;100.00;93241.69;2001229;29;20042;-81
2023/06/28 04:05:03;;;;;;;10.32;4.57;;;;;;;12.52;100.00;93237.06;2004653;29;20057;-82
2023/06/28 04:06:07;;;;;;;8.48;3.90;;;;;;;12.59;100.00;93236.84;2001263;29;20091;-81
2023/06/28 04:07:09;;;;;;;11.40;4.43;;;;;;;12.57;100.00;93246.50;2014007;29;20108;-81
2023/06/28 04:08:12;;;;;;;11.57;4.60;;;;;;;12.55;100.00;93252.28;2007874;29;20533;-83
2023/06/28 04:09:15;;;;;;;8.70;4.00;;;;;;;12.59;100.00;93244.91;2010188;29;20435;-84
2023/06/28 04:10:18;;;;;;;10.52;3.85;;;;;;;12.60;100.00;93245.66;2008961;29;20084;-84
2023/06/28 04:11:23;;;;;;;10.15;3.78;;;;;;;12.58;100.00;93242.66;2004439;29;20446;-84
2023/06/28 04:12:31;;;;;;;9.18;4.30;;;;;;;12.42;100.00;93240.00;2012800;29;20479;-82
2023/06/28 04:13:35;;;;;;;7.90;4.40;;;;;;;12.44;100.00;93235.00;2013907;29;20041;-84
2023/06/28 04:14:41;;;;;;;7.72;4.35;;;;;;;12.50;100.00;93230.59;2009762;29;20022;-82
2023/06/28 04:15:48;;;;;;;10.25;4.47;;;;;;;12.56;100.00;93229.69;2011752;29;20021;-83
2023/06/28 04:16:55;;;;;;;8.68;3.75;;;;;;;12.56;100.00;93237.72;2019834;29;20564;-81
2023/06/28 04:18:01;;;;;;;8.00;4.00;;;;;;;12.50;100.00;93235.97;2020054;29;20029;-84
2023/06/28 04:19:06;;;;;;;9.02;3.95;;;;;;;12.49;100.00;93235.22;2009328;29;20709;-84
2023/06/28 04:20:08;;;;;;;7.00;4.00;;;;;;;12.54;100.00;93229.34;2001470;29;20026;-84
2023/06/28 04:21:12;;;;;;;7.82;4.22;;;;;;;12.55;100.00;93232.75;2000553;29;20026;-82
2023/06/28 04:22:18;;;;;;;7.85;3.83;;;;;;;12.54;100.00;93236.63;2009792;29;20116;-84
2023/06/28 04:23:19;;;;;;;9.10;4.15;;;;;;;12.60;100.00;93234.94;2017745;29;20072;-82
2023/06/28 04:24:28;;;;;;;8.43;4.35;;;;;;;12.64;100.00;93242.88;2013210;29;20101;-83
2023/06/28 04:25:35;;;;;;;13.18;4.03;;;;;;;12.63;100.00;93233.31;2009261;29;20065;-82
2023/06/28 04:26:49;;;;;;;9.20;4.32;;;;;;;12.60;100.00;93235.69;2018490;29;20033;-82
2023/06/28 04:27:52;;;;;;;8.35;3.90;;;;;;;12.53;100.00;93232.44;2013051;29;20029;-84
2023/06/28 04:28:55;;;;;;;10.68;3.90;;;;;;;12.54;100.00;93242.75;2001985;29;20093;-81
2023/06/28 04:30:00;;;;;;;11.98;4.65;;;;;;;12.56;100.00;93242.34;2014866;29;20071;-83
2023/06/28 04:31:05;;;;;;;7.85;4.28;;;;;;;12.55;100.00;93240.81;2010389;29;20471;-82
2023/06/28 04:32:26;;;;;;;8.65;3.80;;;;;;;12.63;100.00;93242.13;2016441;29;20561;-82
2023/06/28 04:33:30;;;;;;;8.25;4.38;;;;;;;12.64;100.00;93243.63;2008581;29;20032;-83
2023/06/28 04:34:35;;;;;;;12.32;4.05;;;;;;;12.70;100.00;93241.19;2001639;29;20094;-83
2023/06/28 04:35:46;;;;;;;9.80;3.85;;;;;;;12.60;100.00;93238.38;2009636;29;20105;-81
2023/06/28 04:36:52;;;;;;;10.00;4.93;;;;;;;12.62;100.00;93243.31;2018220;29;20032;-81
2023/06/28 04:37:56;;;;;;;10.07;4.57;;;;;;;12.60;100.00;93243.75;2012415;29;20037;-82
2023/06/28 04:39:04;;;;;;;7.70;4.07;;;;;;;12.60;100.00;93245.66;2010805;29;20037;-82
2023/06/28 04:40:06;;;;;;;11.95;4.05;;;;;;;12.60;100.00;93241.06;2011242;29;20017;-81
2023/06/28 04:41:11;;;;;;;13.10;4.32;;;;;;;12.63;100.00;93242.13;2009782;29;20048;-83
2023/06/28 04:42:19;;;;;;;7.38;4.20;;;;;;;12.60;100.00;93241.06;2009655;29;20049;-82
2023/06/28 04:43:24;;;;;;;8.70;4.00;;;;;;;12.60;100.00;93245.66;1999629;29;20042;-83
2023/06/28 04:44:36;;;;;;;7.82;4.38;;;;;;;12.58;100.00;93243.41;2015803;29;20355;-83
2023/06/28 04:45:41;;;;;;;14.13;4.30;;;;;;;12.59;100.00;93244.91;2001768;29;20482;-80
2023/06/28 04:46:44;;;;;;;8.13;4.38;;;;;;;12.64;100.00;93240.19;1998649;29;20094;-84
2023/06/28 04:47:48;;;;;;;8.13;4.30;;;;;;;12.59;100.00;93233.41;2009771;29;20150;-82
2023/06/28 04:48:54;;;;;;;14.82;4.97;;;;;;;12.59;100.00;93234.16;2015070;29;20024;-82
2023/06/28 04:50:02;;;;;;;12.43;4.43;;;;;;;12.69;100.00;93234.31;2006426;29;20033;-83
2023/06/28 04:51:05;;;;;;;11.38;4.55;;;;;;;12.70;100.00;93233.88;2011576;29;20037;-83
2023/06/28 04:52:10;;;;;;;8.75;4.22;;;;;;;12.71;100.00;93237.31;2009021;29;20125;-84
2023/06/28 04:53:12;;;;;;;9.45;3.95;;;;;;;12.78;100.00;93245.94;2009954;29;20454;-84
2023/06/28 04:54:15;;;;;;;9.13;4.00;;;;;;;12.81;100.00;93233.56;2010900;29;20028;-82
2023/06/28 04:55:18;;;;;;;11.45;4.35;;;;;;;12.79;100.00;93236.69;2010591;29;20036;-84
2023/06/28 04:56:20;;;;;;;9.93;4.53;;;;;;;12.78;100.00;93234.44;2004618;29;20041;-84
2023/06/28 04:57:26;;;;;;;10.40;4.18;;;;;;;12.69;100.00;93237.00;2006527;29;20026;-83
2023/06/28 04:58:31;;;;;;;9.27;4.35;;;;;;;12.70;100.00;93241.94;2018751;29;20041;-84
2023/06/28 04:59:37;;;;;;;10.98;4.18;;;;;;;12.71;100.00;93238.06;2019473;29;20041;-82
2023/06/28 05:00:42;;;;;;;10.23;4.70;;;;;;;12.77;100.00;93243.66;2013353;29;20051;-83
2023/06/28 05:01:49;;;;;;;13.80;4.78;;;;;;;12.79;100.00;93244.00;2010528;29;20035;-83
2023/06/28 05:02:52;;;;;;;14.43;4.53;;;;;;;12.83;100.00;93242.72;2018757;29;20589;-84
2023/06/28 05:03:59;;;;;;;5.68;4.03;;;;;;;12.88;100.00;93241.44;2014983;29;20060;-82